createdAt,value
2023-05-22T04:31:08.099Z,71.00
2023-05-22T04:33:48.401Z,71.00
2023-05-22T04:36:26.118Z,81.92
2023-05-22T04:39:02.658Z,73.60
2023-05-22T04:41:37.799Z,71.50
2023-05-22T04:44:12.542Z,71.22
2023-05-22T04:46:48.266Z,71.05
2023-05-22T04:49:24.896Z,71.08
2023-05-22T04:51:59.331Z,71.09
2023-05-22T04:54:34.522Z,70.28
2023-05-22T04:57:08.902Z,70.94
2023-05-22T04:59:44.085Z,70.77
2023-05-22T05:02:19.855Z,70.15
2023-05-22T05:04:54.993Z,70.31
2023-05-22T05:07:29.603Z,70.40
2023-05-22T05:10:04.948Z,69.85
2023-05-22T05:12:39.343Z,70.28
2023-05-22T05:15:14.114Z,70.27
2023-05-22T05:17:49.957Z,70.59
2023-05-22T05:20:25.170Z,70.36
2023-05-22T05:22:59.509Z,70.15
2023-05-22T05:25:36.101Z,69.30
2023-05-22T05:28:12.162Z,68.94
2023-05-22T05:30:47.079Z,66.86
2023-05-22T05:33:23.102Z,67.94
2023-05-22T05:35:59.021Z,68.96
2023-05-22T05:38:33.526Z,69.79
2023-05-22T05:41:08.400Z,66.45
2023-05-22T05:43:43.349Z,69.53
2023-05-22T05:46:19.339Z,62.08
2023-05-22T05:48:56.170Z,62.01
2023-05-22T05:51:31.249Z,62.10
2023-05-22T05:54:06.169Z,60.70
2023-05-22T05:56:41.393Z,60.06
2023-05-22T05:59:16.188Z,60.81
2023-05-22T06:02:55.418Z,59.58
2023-05-22T06:05:31.238Z,59.58
2023-05-22T06:08:08.827Z,59.26
2023-05-22T06:10:43.611Z,59.53
2023-05-22T06:13:18.150Z,59.17
2023-05-22T06:15:53.175Z,57.96
2023-05-22T06:18:29.095Z,57.43
2023-05-22T06:21:03.908Z,57.07
2023-05-22T06:23:38.608Z,54.20
2023-05-22T06:26:14.105Z,54.18
2023-05-22T06:28:48.695Z,53.95
2023-05-22T06:31:24.622Z,53.87
2023-05-22T06:34:00.943Z,61.87
2023-05-22T06:36:35.989Z,56.23
2023-05-22T06:39:10.450Z,52.98
2023-05-22T06:41:47.014Z,53.51
2023-05-22T06:44:21.564Z,53.31
2023-05-22T06:46:57.764Z,53.35
2023-05-22T06:49:33.866Z,53.66
2023-05-22T06:52:08.667Z,53.14
2023-05-22T06:54:44.137Z,53.56
2023-05-22T06:57:19.815Z,52.23
2023-05-22T06:59:54.435Z,52.77
2023-05-22T07:02:30.311Z,52.99
2023-05-22T07:05:08.088Z,51.95
2023-05-22T07:07:44.626Z,51.26
2023-05-22T07:10:19.559Z,52.52
2023-05-22T07:12:54.302Z,50.89
2023-05-22T07:15:28.943Z,52.23
2023-05-22T07:18:04.066Z,57.98
2023-05-22T07:20:42.913Z,57.40
2023-05-22T07:23:20.380Z,52.63
2023-05-22T07:25:54.781Z,51.66
2023-05-22T07:28:32.109Z,51.65
2023-05-22T07:31:06.977Z,51.61
2023-05-22T07:33:41.769Z,50.89
2023-05-22T07:36:24.765Z,52.48
2023-05-22T07:39:05.822Z,53.50
2023-05-22T07:41:41.224Z,53.61
2023-05-22T07:44:16.664Z,51.54
2023-05-22T07:46:52.095Z,50.71
2023-05-22T07:49:26.988Z,50.24
2023-05-22T07:52:02.835Z,50.12
2023-05-22T07:54:37.931Z,50.91
2023-05-22T07:57:12.878Z,50.80
2023-05-22T07:59:48.997Z,49.81
2023-05-22T08:02:23.822Z,51.95
2023-05-22T08:04:58.561Z,50.95
2023-05-22T08:07:34.444Z,52.02
2023-05-22T08:10:16.030Z,51.57
2023-05-22T08:12:50.414Z,50.45
2023-05-22T08:15:25.161Z,51.37
2023-05-22T08:17:59.621Z,50.57
2023-05-22T08:20:34.484Z,51.39
2023-05-22T08:23:10.243Z,49.86
2023-05-22T08:25:45.095Z,50.75
2023-05-22T08:28:19.596Z,53.20
2023-05-22T08:30:54.543Z,51.24
2023-05-22T08:33:28.904Z,50.01
2023-05-22T08:36:03.654Z,49.05
2023-05-22T08:38:39.828Z,50.05
2023-05-22T08:41:15.769Z,50.79
2023-05-22T08:43:50.189Z,48.94
2023-05-22T08:46:29.453Z,50.16
2023-05-22T10:09:47.093Z,43.62
2023-05-22T10:12:24.910Z,43.62
2023-05-22T10:15:01.723Z,44.43
2023-05-22T10:17:38.152Z,45.21
2023-05-22T10:20:14.352Z,43.00
2023-05-22T10:22:50.153Z,45.13
2023-05-22T10:25:26.619Z,44.57
2023-05-22T10:28:01.969Z,43.16
2023-05-22T10:30:45.468Z,47.11
2023-05-22T10:33:26.278Z,45.80
2023-05-22T10:36:05.284Z,47.85
2023-05-22T10:38:57.684Z,44.86
2023-05-22T10:41:33.850Z,44.88
2023-05-22T10:44:08.588Z,45.31
2023-05-22T10:46:50.231Z,44.95
2023-05-22T10:49:26.228Z,45.04
2023-05-22T10:52:00.927Z,46.28
2023-05-22T10:54:41.792Z,47.00
2023-05-22T10:57:18.964Z,46.97
2023-05-22T11:00:09.702Z,46.33
2023-05-22T11:02:45.360Z,45.90
2023-05-22T11:05:37.451Z,45.07
2023-05-22T11:08:47.461Z,44.35
2023-05-22T11:11:27.112Z,43.56
2023-05-22T11:14:06.103Z,45.05
2023-05-22T11:16:40.989Z,44.08
2023-05-22T11:21:54.374Z,43.23
2023-05-22T11:24:34.162Z,43.35
2023-05-22T11:27:09.238Z,44.50
2023-05-22T12:46:03.125Z,41.14
2023-05-22T12:48:38.228Z,41.14
2023-05-22T12:51:13.719Z,42.40
2023-05-22T12:53:48.471Z,41.17
2023-05-22T12:56:23.128Z,40.97
2023-05-22T12:58:58.158Z,39.33
2023-05-22T13:01:34.309Z,39.39
2023-05-22T13:04:09.122Z,40.78
2023-05-22T13:06:43.499Z,39.17
2023-05-22T13:09:19.105Z,39.06
2023-05-22T13:11:53.653Z,36.75
2023-05-22T13:14:28.363Z,37.43
2023-05-22T13:17:04.205Z,38.52
2023-05-22T13:19:38.973Z,37.57
2023-05-22T13:22:13.343Z,36.85
2023-05-22T13:24:48.102Z,38.03
2023-05-22T13:27:22.489Z,36.57
2023-05-22T13:29:57.174Z,40.39
2023-05-22T13:32:35.227Z,37.25
2023-05-22T13:35:10.952Z,36.31
2023-05-22T13:37:45.445Z,36.13
2023-05-22T13:40:21.183Z,37.52
2023-05-22T13:42:55.730Z,36.02
2023-05-22T13:45:31.300Z,35.58
2023-05-22T13:48:07.190Z,35.49
2023-05-22T13:50:41.952Z,36.71
2023-05-22T13:53:25.386Z,36.26
2023-05-22T13:56:00.229Z,36.14
2023-05-22T13:58:34.535Z,35.53
2023-05-22T14:01:10.782Z,37.16
2023-05-22T14:04:33.442Z,35.26
2023-05-22T14:07:08.509Z,35.26
2023-05-22T14:09:42.928Z,33.43
2023-05-22T14:12:17.686Z,33.36
2023-05-22T14:14:52.474Z,34.07
2023-05-22T14:17:27.214Z,34.17
2023-05-22T14:20:03.957Z,35.28
2023-05-22T14:22:55.372Z,35.38
2023-05-22T14:25:31.346Z,35.98
2023-05-22T14:28:06.374Z,36.23
2023-05-22T14:30:41.026Z,36.57
2023-05-22T14:33:15.766Z,35.18
2023-05-22T14:35:51.885Z,35.21
2023-05-22T14:38:27.377Z,34.25
2023-05-22T14:41:01.821Z,34.75
2023-05-22T14:43:37.459Z,33.08
2023-05-22T14:46:12.583Z,35.92
2023-05-22T14:48:47.292Z,34.83
2023-05-22T14:51:23.199Z,34.80
2023-05-22T14:53:58.196Z,34.91
2023-05-22T14:56:32.603Z,33.94
2023-05-22T14:59:07.364Z,33.91
2023-05-22T15:01:41.797Z,34.09
2023-05-22T15:04:16.600Z,36.55
2023-05-22T15:06:52.387Z,36.84
2023-05-22T15:09:27.223Z,35.49
2023-05-22T15:12:01.808Z,35.42
2023-05-22T15:14:36.897Z,34.70
2023-05-22T15:17:11.322Z,36.86
2023-05-22T15:19:48.861Z,35.81
2023-05-22T15:22:24.832Z,35.81
2023-05-22T15:25:07.065Z,37.30
2023-05-22T15:27:42.105Z,36.22
2023-05-22T15:30:17.397Z,38.42
2023-05-22T15:32:52.090Z,37.89
2023-05-22T15:35:26.807Z,36.79
2023-05-22T20:11:30.984Z,68.01
2023-05-22T20:14:05.974Z,68.01
2023-05-22T20:16:40.439Z,68.79
2023-05-22T20:19:15.501Z,74.63
2023-05-22T20:21:50.941Z,74.56
2023-05-22T20:24:26.475Z,73.83
2023-05-22T20:27:04.868Z,68.88
2023-05-22T20:29:39.464Z,68.69
2023-05-22T20:32:13.999Z,69.22
2023-05-22T20:34:48.814Z,69.72
2023-05-22T20:37:23.261Z,70.96
2023-05-22T20:40:09.575Z,72.12
2023-05-22T20:42:46.267Z,72.62
2023-05-22T20:45:20.988Z,72.39
2023-05-22T20:47:55.367Z,72.74
2023-05-22T20:50:30.065Z,71.85
2023-05-22T20:53:06.496Z,71.41
2023-05-22T20:55:41.685Z,71.29
2023-05-22T20:58:19.966Z,71.18
2023-05-22T21:00:54.735Z,72.75
2023-05-22T21:03:29.063Z,73.68
2023-05-22T21:06:03.771Z,73.66
2023-05-22T21:08:38.325Z,73.50
2023-05-22T21:11:13.194Z,73.09
2023-05-22T21:13:49.089Z,73.06
2023-05-22T21:16:23.850Z,73.41
2023-05-22T21:18:58.290Z,73.13
2023-05-22T21:21:33.296Z,72.93
2023-05-22T21:24:08.706Z,73.46
2023-05-22T21:26:43.604Z,73.78
2023-05-22T21:29:19.312Z,72.90
2023-05-22T21:31:54.142Z,72.73
2023-05-22T21:34:28.572Z,73.47
2023-05-22T21:37:03.276Z,74.60
2023-05-22T21:39:37.559Z,74.43
2023-05-22T21:42:12.428Z,73.89
2023-05-22T21:44:48.397Z,73.69
2023-05-22T21:47:23.126Z,73.96
2023-05-22T21:49:57.624Z,73.16
2023-05-22T21:52:32.273Z,72.73
2023-05-22T21:55:07.426Z,73.80
2023-05-22T21:57:42.248Z,73.30
2023-05-22T22:00:19.030Z,73.15
2023-05-22T22:04:36.808Z,72.56
2023-05-22T22:07:12.827Z,72.56
2023-05-22T22:09:47.184Z,74.26
2023-05-22T22:12:21.872Z,74.79
2023-05-22T22:14:56.217Z,74.50
2023-05-22T22:17:30.936Z,74.08
2023-05-22T22:20:08.607Z,74.62
2023-05-22T22:22:43.522Z,74.65
2023-05-22T22:25:17.954Z,74.09
2023-05-22T22:27:52.820Z,74.04
2023-05-22T22:30:27.184Z,73.62
2023-05-22T22:33:01.937Z,73.41
2023-05-22T22:35:37.941Z,73.81
2023-05-22T22:38:12.639Z,75.24
2023-05-22T22:40:47.144Z,75.18
2023-05-22T22:43:21.844Z,75.14
2023-05-22T22:45:56.186Z,75.15
2023-05-22T22:48:30.898Z,74.58
2023-05-22T22:51:06.925Z,74.44
2023-05-22T22:53:41.838Z,74.73
2023-05-22T22:56:16.412Z,75.28
2023-05-22T22:58:51.062Z,74.99
2023-05-22T23:01:25.712Z,74.30
2023-05-22T23:04:00.474Z,76.61
2023-05-22T23:06:36.466Z,76.41
2023-05-22T23:09:11.466Z,78.21
2023-05-22T23:11:45.901Z,77.87
2023-05-22T23:14:20.580Z,77.31
2023-05-22T23:16:55.290Z,76.83
2023-05-22T23:19:29.998Z,77.26
2023-05-22T23:22:05.856Z,76.60
2023-05-22T23:24:40.532Z,76.05
2023-05-22T23:27:14.856Z,76.15
2023-05-22T23:29:49.828Z,76.94
2023-05-22T23:32:24.179Z,77.46
2023-05-22T23:34:58.909Z,77.18
2023-05-22T23:37:34.630Z,76.98
2023-05-22T23:40:10.528Z,77.31
2023-05-22T23:42:44.854Z,77.19
2023-05-22T23:45:19.502Z,76.96
2023-05-22T23:47:53.951Z,77.06
2023-05-22T23:50:28.622Z,78.23
2023-05-22T23:53:04.481Z,78.44
2023-05-22T23:55:39.264Z,78.59
2023-05-22T23:58:13.829Z,77.60
